Terminal Aerodrome Forecast
Issued by NWS

Home | Current Version | Previous Version | Text Only | Print | Product List | Glossary On
Versions: 1 2 3 4 5 6 7 8 9 10 11 12
000
FTAK31 PANC 280530
TAFATK
TAF
PATK 280530Z 2806/2906 00000KT P6SM SCT080 OVC110
     FM281200 36004KT P6SM VCSH SCT030 BKN060
     FM290400 06005KT 6SM -SN SCT025 OVC040=

USA.gov is the U.S. government's official web portal to all federal, state and local government web resources and services.